sensor_id;sensor_type;location;lat;lon;timestamp;P1;durP1;ratioP1;P2;durP2;ratioP2
7523;SDS011;3803;51.666;7.630;2023-01-30T00:00:19;34.00;;;17.38;;
7523;SDS011;3803;51.666;7.630;2023-01-30T00:00:39;32.05;;;18.00;;
7523;SDS011;3803;51.666;7.630;2023-01-30T00:01:01;31.67;;;18.00;;
7523;SDS011;3803;51.666;7.630;2023-01-30T00:01:28;30.75;;;18.30;;
7523;SDS011;3803;51.666;7.630;2023-01-30T00:01:50;31.60;;;18.58;;
7523;SDS011;3803;51.666;7.630;2023-01-30T00:02:11;31.08;;;18.33;;
7523;SDS011;3803;51.666;7.630;2023-01-30T00:02:31;30.80;;;18.33;;
7523;SDS011;3803;51.666;7.630;2023-01-30T00:02:52;32.70;;;18.88;;
7523;SDS011;3803;51.666;7.630;2023-01-30T00:03:13;33.50;;;18.92;;
7523;SDS011;3803;51.666;7.630;2023-01-30T00:03:33;35.33;;;19.00;;
7523;SDS011;3803;51.666;7.630;2023-01-30T00:03:54;32.58;;;18.40;;
7523;SDS011;3803;51.666;7.630;2023-01-30T00:04:15;35.88;;;18.75;;
7523;SDS011;3803;51.666;7.630;2023-01-30T00:04:36;33.83;;;18.40;;
7523;SDS011;3803;51.666;7.630;2023-01-30T00:04:57;34.70;;;18.13;;
7523;SDS011;3803;51.666;7.630;2023-01-30T00:05:17;31.05;;;17.77;;
7523;SDS011;3803;51.666;7.630;2023-01-30T00:05:38;31.80;;;18.15;;
7523;SDS011;3803;51.666;7.630;2023-01-30T00:05:58;32.53;;;18.27;;
7523;SDS011;3803;51.666;7.630;2023-01-30T00:06:19;32.83;;;18.17;;
7523;SDS011;3803;51.666;7.630;2023-01-30T00:06:40;32.78;;;17.73;;
7523;SDS011;3803;51.666;7.630;2023-01-30T00:07:01;31.73;;;17.45;;
7523;SDS011;3803;51.666;7.630;2023-01-30T00:07:22;31.25;;;17.55;;
7523;SDS011;3803;51.666;7.630;2023-01-30T00:07:43;31.30;;;17.80;;
7523;SDS011;3803;51.666;7.630;2023-01-30T00:08:03;33.65;;;18.60;;
7523;SDS011;3803;51.666;7.630;2023-01-30T00:08:24;34.73;;;18.50;;
7523;SDS011;3803;51.666;7.630;2023-01-30T00:08:45;33.97;;;18.33;;
7523;SDS011;3803;51.666;7.630;2023-01-30T00:09:06;32.95;;;17.90;;
7523;SDS011;3803;51.666;7.630;2023-01-30T00:09:27;32.20;;;18.23;;
7523;SDS011;3803;51.666;7.630;2023-01-30T00:09:47;32.92;;;18.55;;
7523;SDS011;3803;51.666;7.630;2023-01-30T00:10:08;32.10;;;18.55;;
7523;SDS011;3803;51.666;7.630;2023-01-30T00:10:30;30.52;;;18.04;;
7523;SDS011;3803;51.666;7.630;2023-01-30T00:10:50;33.87;;;18.20;;
7523;SDS011;3803;51.666;7.630;2023-01-30T00:11:12;36.10;;;18.10;;
7523;SDS011;3803;51.666;7.630;2023-01-30T00:11:34;35.92;;;18.20;;
7523;SDS011;3803;51.666;7.630;2023-01-30T00:11:54;34.27;;;18.37;;
7523;SDS011;3803;51.666;7.630;2023-01-30T00:12:15;34.00;;;18.85;;
7523;SDS011;3803;51.666;7.630;2023-01-30T00:12:35;33.22;;;18.20;;
7523;SDS011;3803;51.666;7.630;2023-01-30T00:13:08;32.83;;;18.10;;
7523;SDS011;3803;51.666;7.630;2023-01-30T00:13:28;31.73;;;18.10;;
7523;SDS011;3803;51.666;7.630;2023-01-30T00:13:49;32.53;;;18.20;;
7523;SDS011;3803;51.666;7.630;2023-01-30T00:14:11;31.67;;;17.88;;
7523;SDS011;3803;51.666;7.630;2023-01-30T00:14:31;32.80;;;17.67;;
7523;SDS011;3803;51.666;7.630;2023-01-30T00:14:52;31.92;;;17.67;;
7523;SDS011;3803;51.666;7.630;2023-01-30T00:15:12;32.00;;;18.30;;
7523;SDS011;3803;51.666;7.630;2023-01-30T00:15:33;30.88;;;18.60;;
7523;SDS011;3803;51.666;7.630;2023-01-30T00:15:53;31.60;;;18.57;;
7523;SDS011;3803;51.666;7.630;2023-01-30T00:16:14;33.15;;;18.42;;
7523;SDS011;3803;51.666;7.630;2023-01-30T00:16:36;33.53;;;18.00;;
7523;SDS011;3803;51.666;7.630;2023-01-30T00:16:56;33.63;;;18.10;;
7523;SDS011;3803;51.666;7.630;2023-01-30T00:17:17;34.57;;;18.57;;
7523;SDS011;3803;51.666;7.630;2023-01-30T00:17:38;35.00;;;18.95;;
7523;SDS011;3803;51.666;7.630;2023-01-30T00:17:58;34.15;;;18.25;;
7523;SDS011;3803;51.666;7.630;2023-01-30T00:18:19;33.30;;;18.00;;
7523;SDS011;3803;51.666;7.630;2023-01-30T00:18:40;32.95;;;17.67;;
7523;SDS011;3803;51.666;7.630;2023-01-30T00:19:01;32.55;;;18.15;;
7523;SDS011;3803;51.666;7.630;2023-01-30T00:19:22;35.03;;;18.70;;
7523;SDS011;3803;51.666;7.630;2023-01-30T00:19:43;34.00;;;18.88;;
7523;SDS011;3803;51.666;7.630;2023-01-30T00:20:03;36.10;;;18.97;;
7523;SDS011;3803;51.666;7.630;2023-01-30T00:20:24;35.15;;;18.80;;
7523;SDS011;3803;51.666;7.630;2023-01-30T00:20:45;36.78;;;18.85;;
7523;SDS011;3803;51.666;7.630;2023-01-30T00:21:07;35.22;;;18.45;;
7523;SDS011;3803;51.666;7.630;2023-01-30T00:21:29;34.38;;;18.23;;
7523;SDS011;3803;51.666;7.630;2023-01-30T00:21:49;32.85;;;18.23;;
7523;SDS011;3803;51.666;7.630;2023-01-30T00:22:10;33.92;;;19.15;;
7523;SDS011;3803;51.666;7.630;2023-01-30T00:22:32;35.50;;;19.67;;
7523;SDS011;3803;51.666;7.630;2023-01-30T00:22:52;35.75;;;19.33;;
7523;SDS011;3803;51.666;7.630;2023-01-30T00:23:13;32.95;;;18.42;;
7523;SDS011;3803;51.666;7.630;2023-01-30T00:23:34;34.23;;;17.87;;
7523;SDS011;3803;51.666;7.630;2023-01-30T00:23:56;34.58;;;17.77;;
7523;SDS011;3803;51.666;7.630;2023-01-30T00:24:16;35.93;;;18.83;;
7523;SDS011;3803;51.666;7.630;2023-01-30T00:24:37;33.85;;;18.42;;
7523;SDS011;3803;51.666;7.630;2023-01-30T00:24:57;34.45;;;19.02;;
7523;SDS011;3803;51.666;7.630;2023-01-30T00:25:18;34.23;;;18.40;;
7523;SDS011;3803;51.666;7.630;2023-01-30T00:25:39;36.05;;;19.00;;
7523;SDS011;3803;51.666;7.630;2023-01-30T00:26:04;35.20;;;18.73;;
7523;SDS011;3803;51.666;7.630;2023-01-30T00:26:25;34.08;;;18.77;;
7523;SDS011;3803;51.666;7.630;2023-01-30T00:26:46;33.58;;;18.30;;
7523;SDS011;3803;51.666;7.630;2023-01-30T00:27:07;34.47;;;18.53;;
7523;SDS011;3803;51.666;7.630;2023-01-30T00:27:29;35.90;;;18.98;;
7523;SDS011;3803;51.666;7.630;2023-01-30T00:27:50;33.90;;;18.73;;
7523;SDS011;3803;51.666;7.630;2023-01-30T00:28:10;33.10;;;18.23;;
7523;SDS011;3803;51.666;7.630;2023-01-30T00:28:32;31.92;;;17.80;;
7523;SDS011;3803;51.666;7.630;2023-01-30T00:28:53;34.78;;;18.25;;
7523;SDS011;3803;51.666;7.630;2023-01-30T00:29:14;34.33;;;18.17;;
7523;SDS011;3803;51.666;7.630;2023-01-30T00:29:34;33.97;;;18.20;;
7523;SDS011;3803;51.666;7.630;2023-01-30T00:29:55;31.65;;;17.98;;
7523;SDS011;3803;51.666;7.630;2023-01-30T00:30:16;34.10;;;18.90;;
7523;SDS011;3803;51.666;7.630;2023-01-30T00:30:36;33.53;;;18.83;;
7523;SDS011;3803;51.666;7.630;2023-01-30T00:30:57;34.80;;;19.40;;
7523;SDS011;3803;51.666;7.630;2023-01-30T00:31:18;32.73;;;18.87;;
7523;SDS011;3803;51.666;7.630;2023-01-30T00:31:39;34.97;;;19.80;;
7523;SDS011;3803;51.666;7.630;2023-01-30T00:32:09;32.92;;;19.63;;
7523;SDS011;3803;51.666;7.630;2023-01-30T00:32:29;32.30;;;18.80;;
7523;SDS011;3803;51.666;7.630;2023-01-30T00:32:54;32.25;;;18.48;;
7523;SDS011;3803;51.666;7.630;2023-01-30T00:33:16;34.15;;;19.10;;
7523;SDS011;3803;51.666;7.630;2023-01-30T00:33:37;34.60;;;19.80;;
7523;SDS011;3803;51.666;7.630;2023-01-30T00:33:58;34.33;;;19.20;;
7523;SDS011;3803;51.666;7.630;2023-01-30T00:34:19;33.60;;;18.90;;
7523;SDS011;3803;51.666;7.630;2023-01-30T00:34:40;33.55;;;18.55;;
7523;SDS011;3803;51.666;7.630;2023-01-30T00:35:01;35.25;;;18.65;;
7523;SDS011;3803;51.666;7.630;2023-01-30T00:35:22;36.08;;;19.00;;
7523;SDS011;3803;51.666;7.630;2023-01-30T00:35:48;33.97;;;18.88;;
7523;SDS011;3803;51.666;7.630;2023-01-30T00:36:11;33.53;;;19.27;;
7523;SDS011;3803;51.666;7.630;2023-01-30T00:36:32;32.80;;;18.90;;
7523;SDS011;3803;51.666;7.630;2023-01-30T00:36:53;33.53;;;19.08;;
7523;SDS011;3803;51.666;7.630;2023-01-30T00:37:13;35.33;;;19.63;;
7523;SDS011;3803;51.666;7.630;2023-01-30T00:37:34;36.47;;;20.20;;
7523;SDS011;3803;51.666;7.630;2023-01-30T00:37:55;35.75;;;19.98;;
7523;SDS011;3803;51.666;7.630;2023-01-30T00:38:17;34.65;;;19.50;;
7523;SDS011;3803;51.666;7.630;2023-01-30T00:38:38;32.33;;;18.90;;
7523;SDS011;3803;51.666;7.630;2023-01-30T00:39:00;35.10;;;19.50;;
7523;SDS011;3803;51.666;7.630;2023-01-30T00:39:21;36.37;;;19.40;;
7523;SDS011;3803;51.666;7.630;2023-01-30T00:39:41;37.30;;;19.40;;
7523;SDS011;3803;51.666;7.630;2023-01-30T00:40:02;36.90;;;19.23;;
7523;SDS011;3803;51.666;7.630;2023-01-30T00:40:24;36.63;;;19.20;;
7523;SDS011;3803;51.666;7.630;2023-01-30T00:40:46;38.00;;;19.65;;
7523;SDS011;3803;51.666;7.630;2023-01-30T00:41:08;36.50;;;19.70;;
7523;SDS011;3803;51.666;7.630;2023-01-30T00:41:29;35.80;;;20.15;;
7523;SDS011;3803;51.666;7.630;2023-01-30T00:42:10;36.47;;;20.45;;
7523;SDS011;3803;51.666;7.630;2023-01-30T00:42:49;37.50;;;19.58;;
7523;SDS011;3803;51.666;7.630;2023-01-30T00:43:30;36.67;;;18.88;;
7523;SDS011;3803;51.666;7.630;2023-01-30T00:44:10;34.97;;;19.80;;
7523;SDS011;3803;51.666;7.630;2023-01-30T00:44:51;35.25;;;19.88;;
7523;SDS011;3803;51.666;7.630;2023-01-30T00:45:30;34.63;;;19.10;;
7523;SDS011;3803;51.666;7.630;2023-01-30T00:46:12;34.55;;;18.95;;
7523;SDS011;3803;51.666;7.630;2023-01-30T00:46:54;34.17;;;19.35;;
7523;SDS011;3803;51.666;7.630;2023-01-30T00:47:24;34.45;;;19.67;;
7523;SDS011;3803;51.666;7.630;2023-01-30T00:47:47;35.15;;;20.23;;
7523;SDS011;3803;51.666;7.630;2023-01-30T00:48:08;35.45;;;19.65;;
7523;SDS011;3803;51.666;7.630;2023-01-30T00:48:29;33.73;;;19.43;;
7523;SDS011;3803;51.666;7.630;2023-01-30T00:48:50;35.22;;;19.42;;
7523;SDS011;3803;51.666;7.630;2023-01-30T00:49:11;35.65;;;19.75;;
7523;SDS011;3803;51.666;7.630;2023-01-30T00:49:32;34.80;;;19.58;;
7523;SDS011;3803;51.666;7.630;2023-01-30T00:49:53;33.50;;;19.23;;
7523;SDS011;3803;51.666;7.630;2023-01-30T00:50:14;34.45;;;19.67;;
7523;SDS011;3803;51.666;7.630;2023-01-30T00:50:36;36.80;;;19.98;;
7523;SDS011;3803;51.666;7.630;2023-01-30T00:51:05;36.55;;;19.80;;
7523;SDS011;3803;51.666;7.630;2023-01-30T00:51:26;36.95;;;19.60;;
7523;SDS011;3803;51.666;7.630;2023-01-30T00:51:47;36.20;;;19.45;;
7523;SDS011;3803;51.666;7.630;2023-01-30T00:52:08;36.77;;;19.50;;
7523;SDS011;3803;51.666;7.630;2023-01-30T00:52:28;33.78;;;18.98;;
7523;SDS011;3803;51.666;7.630;2023-01-30T00:52:49;34.80;;;19.15;;
7523;SDS011;3803;51.666;7.630;2023-01-30T00:53:11;31.77;;;18.40;;
7523;SDS011;3803;51.666;7.630;2023-01-30T00:53:34;31.98;;;18.58;;
7523;SDS011;3803;51.666;7.630;2023-01-30T00:53:54;31.35;;;18.88;;
7523;SDS011;3803;51.666;7.630;2023-01-30T00:54:15;33.38;;;19.73;;
7523;SDS011;3803;51.666;7.630;2023-01-30T00:54:35;34.90;;;20.20;;
7523;SDS011;3803;51.666;7.630;2023-01-30T00:54:56;35.38;;;20.10;;
7523;SDS011;3803;51.666;7.630;2023-01-30T00:55:16;34.30;;;20.10;;
7523;SDS011;3803;51.666;7.630;2023-01-30T00:55:37;34.77;;;19.77;;
7523;SDS011;3803;51.666;7.630;2023-01-30T00:55:58;34.85;;;19.23;;
7523;SDS011;3803;51.666;7.630;2023-01-30T00:56:19;37.08;;;19.25;;
7523;SDS011;3803;51.666;7.630;2023-01-30T00:56:39;35.10;;;19.67;;
7523;SDS011;3803;51.666;7.630;2023-01-30T00:57:00;36.17;;;20.70;;
7523;SDS011;3803;51.666;7.630;2023-01-30T00:57:20;35.40;;;20.55;;
7523;SDS011;3803;51.666;7.630;2023-01-30T00:57:41;34.33;;;19.77;;
7523;SDS011;3803;51.666;7.630;2023-01-30T00:58:04;33.65;;;19.15;;
7523;SDS011;3803;51.666;7.630;2023-01-30T00:58:25;34.10;;;19.50;;
7523;SDS011;3803;51.666;7.630;2023-01-30T00:58:46;34.55;;;19.20;;
7523;SDS011;3803;51.666;7.630;2023-01-30T00:59:06;32.90;;;19.07;;
7523;SDS011;3803;51.666;7.630;2023-01-30T00:59:27;32.95;;;18.60;;
7523;SDS011;3803;51.666;7.630;2023-01-30T00:59:47;32.58;;;19.10;;
7523;SDS011;3803;51.666;7.630;2023-01-30T01:00:08;36.03;;;20.03;;
7523;SDS011;3803;51.666;7.630;2023-01-30T01:00:29;36.03;;;20.00;;
7523;SDS011;3803;51.666;7.630;2023-01-30T01:00:50;35.77;;;20.13;;
7523;SDS011;3803;51.666;7.630;2023-01-30T01:01:11;34.28;;;20.00;;
7523;SDS011;3803;51.666;7.630;2023-01-30T01:01:32;36.53;;;20.83;;
7523;SDS011;3803;51.666;7.630;2023-01-30T01:01:53;36.88;;;20.25;;
7523;SDS011;3803;51.666;7.630;2023-01-30T01:02:13;35.55;;;19.80;;
7523;SDS011;3803;51.666;7.630;2023-01-30T01:02:37;36.30;;;19.80;;
7523;SDS011;3803;51.666;7.630;2023-01-30T01:02:57;37.05;;;20.20;;
7523;SDS011;3803;51.666;7.630;2023-01-30T01:03:18;37.42;;;20.33;;
7523;SDS011;3803;51.666;7.630;2023-01-30T01:03:39;36.47;;;19.77;;
7523;SDS011;3803;51.666;7.630;2023-01-30T01:03:59;39.10;;;20.58;;
7523;SDS011;3803;51.666;7.630;2023-01-30T01:04:21;37.65;;;20.80;;
7523;SDS011;3803;51.666;7.630;2023-01-30T01:04:42;37.35;;;21.30;;
7523;SDS011;3803;51.666;7.630;2023-01-30T01:05:04;38.78;;;21.12;;
7523;SDS011;3803;51.666;7.630;2023-01-30T01:05:25;38.45;;;20.85;;
7523;SDS011;3803;51.666;7.630;2023-01-30T01:05:46;38.55;;;20.55;;
7523;SDS011;3803;51.666;7.630;2023-01-30T01:06:07;35.92;;;20.35;;
7523;SDS011;3803;51.666;7.630;2023-01-30T01:06:28;38.85;;;20.75;;
7523;SDS011;3803;51.666;7.630;2023-01-30T01:06:50;36.75;;;20.60;;
7523;SDS011;3803;51.666;7.630;2023-01-30T01:07:11;36.25;;;20.90;;
7523;SDS011;3803;51.666;7.630;2023-01-30T01:07:32;34.38;;;20.23;;
7523;SDS011;3803;51.666;7.630;2023-01-30T01:08:09;35.67;;;20.73;;
7523;SDS011;3803;51.666;7.630;2023-01-30T01:08:30;36.00;;;20.65;;
7523;SDS011;3803;51.666;7.630;2023-01-30T01:08:50;37.97;;;21.38;;
7523;SDS011;3803;51.666;7.630;2023-01-30T01:09:11;38.40;;;21.23;;
7523;SDS011;3803;51.666;7.630;2023-01-30T01:09:33;38.65;;;21.10;;
7523;SDS011;3803;51.666;7.630;2023-01-30T01:09:54;37.33;;;20.70;;
7523;SDS011;3803;51.666;7.630;2023-01-30T01:10:15;36.72;;;20.67;;
7523;SDS011;3803;51.666;7.630;2023-01-30T01:10:36;36.05;;;20.20;;
7523;SDS011;3803;51.666;7.630;2023-01-30T01:10:57;35.38;;;20.10;;
7523;SDS011;3803;51.666;7.630;2023-01-30T01:11:18;36.10;;;20.33;;
7523;SDS011;3803;51.666;7.630;2023-01-30T01:11:45;36.97;;;21.70;;
7523;SDS011;3803;51.666;7.630;2023-01-30T01:12:12;37.40;;;21.55;;
7523;SDS011;3803;51.666;7.630;2023-01-30T01:12:32;40.55;;;22.15;;
7523;SDS011;3803;51.666;7.630;2023-01-30T01:12:53;39.95;;;21.33;;
7523;SDS011;3803;51.666;7.630;2023-01-30T01:13:14;40.88;;;21.63;;
7523;SDS011;3803;51.666;7.630;2023-01-30T01:13:35;38.40;;;21.50;;
7523;SDS011;3803;51.666;7.630;2023-01-30T01:13:57;37.75;;;21.02;;
7523;SDS011;3803;51.666;7.630;2023-01-30T01:14:19;36.78;;;20.85;;
7523;SDS011;3803;51.666;7.630;2023-01-30T01:14:40;37.55;;;21.13;;
7523;SDS011;3803;51.666;7.630;2023-01-30T01:15:01;38.13;;;21.80;;
7523;SDS011;3803;51.666;7.630;2023-01-30T01:15:22;38.25;;;21.52;;
7523;SDS011;3803;51.666;7.630;2023-01-30T01:15:43;41.92;;;21.52;;
7523;SDS011;3803;51.666;7.630;2023-01-30T01:16:04;41.67;;;21.40;;
7523;SDS011;3803;51.666;7.630;2023-01-30T01:16:25;43.25;;;22.48;;
7523;SDS011;3803;51.666;7.630;2023-01-30T01:16:47;38.25;;;21.20;;
7523;SDS011;3803;51.666;7.630;2023-01-30T01:17:07;38.22;;;21.40;;
7523;SDS011;3803;51.666;7.630;2023-01-30T01:17:28;35.80;;;20.70;;
7523;SDS011;3803;51.666;7.630;2023-01-30T01:17:49;36.03;;;21.00;;
7523;SDS011;3803;51.666;7.630;2023-01-30T01:18:09;35.75;;;20.60;;
7523;SDS011;3803;51.666;7.630;2023-01-30T01:18:30;36.67;;;20.93;;
7523;SDS011;3803;51.666;7.630;2023-01-30T01:18:51;36.55;;;20.92;;
7523;SDS011;3803;51.666;7.630;2023-01-30T01:19:12;36.63;;;20.73;;
7523;SDS011;3803;51.666;7.630;2023-01-30T01:19:34;37.67;;;20.42;;
7523;SDS011;3803;51.666;7.630;2023-01-30T01:19:54;39.07;;;20.70;;
7523;SDS011;3803;51.666;7.630;2023-01-30T01:20:15;38.75;;;21.08;;
7523;SDS011;3803;51.666;7.630;2023-01-30T01:20:36;36.15;;;20.90;;
7523;SDS011;3803;51.666;7.630;2023-01-30T01:21:03;34.10;;;20.30;;
7523;SDS011;3803;51.666;7.630;2023-01-30T01:21:23;34.00;;;19.60;;
7523;SDS011;3803;51.666;7.630;2023-01-30T01:21:46;36.58;;;19.88;;
7523;SDS011;3803;51.666;7.630;2023-01-30T01:22:07;37.72;;;19.98;;
7523;SDS011;3803;51.666;7.630;2023-01-30T01:22:27;37.37;;;20.27;;
7523;SDS011;3803;51.666;7.630;2023-01-30T01:22:51;37.87;;;20.20;;
7523;SDS011;3803;51.666;7.630;2023-01-30T01:23:14;37.97;;;20.67;;
7523;SDS011;3803;51.666;7.630;2023-01-30T01:23:34;37.28;;;20.92;;
7523;SDS011;3803;51.666;7.630;2023-01-30T01:23:56;38.13;;;21.00;;
7523;SDS011;3803;51.666;7.630;2023-01-30T01:24:18;38.50;;;20.80;;
7523;SDS011;3803;51.666;7.630;2023-01-30T01:24:39;38.08;;;20.73;;
7523;SDS011;3803;51.666;7.630;2023-01-30T01:25:02;36.53;;;20.38;;
7523;SDS011;3803;51.666;7.630;2023-01-30T01:25:23;36.75;;;21.23;;
7523;SDS011;3803;51.666;7.630;2023-01-30T01:25:44;35.80;;;20.92;;
7523;SDS011;3803;51.666;7.630;2023-01-30T01:26:05;37.33;;;21.17;;
7523;SDS011;3803;51.666;7.630;2023-01-30T01:26:28;35.47;;;19.73;;
7523;SDS011;3803;51.666;7.630;2023-01-30T01:26:48;36.08;;;20.05;;
7523;SDS011;3803;51.666;7.630;2023-01-30T01:27:09;35.30;;;19.70;;
7523;SDS011;3803;51.666;7.630;2023-01-30T01:27:29;34.00;;;19.80;;
7523;SDS011;3803;51.666;7.630;2023-01-30T01:27:50;31.40;;;19.08;;
7523;SDS011;3803;51.666;7.630;2023-01-30T01:28:11;29.63;;;19.17;;
7523;SDS011;3803;51.666;7.630;2023-01-30T01:28:32;32.80;;;20.05;;
7523;SDS011;3803;51.666;7.630;2023-01-30T01:28:56;36.17;;;20.88;;
7523;SDS011;3803;51.666;7.630;2023-01-30T01:29:17;37.00;;;20.90;;
7523;SDS011;3803;51.666;7.630;2023-01-30T01:29:37;39.80;;;21.10;;
7523;SDS011;3803;51.666;7.630;2023-01-30T01:29:58;39.60;;;20.80;;
7523;SDS011;3803;51.666;7.630;2023-01-30T01:30:19;40.08;;;20.13;;
7523;SDS011;3803;51.666;7.630;2023-01-30T01:30:39;35.20;;;19.30;;
7523;SDS011;3803;51.666;7.630;2023-01-30T01:31:07;37.10;;;18.83;;
7523;SDS011;3803;51.666;7.630;2023-01-30T01:31:32;41.20;;;20.17;;
7523;SDS011;3803;51.666;7.630;2023-01-30T01:31:52;39.92;;;20.50;;
7523;SDS011;3803;51.666;7.630;2023-01-30T01:32:13;39.60;;;20.53;;
7523;SDS011;3803;51.666;7.630;2023-01-30T01:32:33;35.60;;;19.75;;
7523;SDS011;3803;51.666;7.630;2023-01-30T01:32:55;34.45;;;19.70;;
7523;SDS011;3803;51.666;7.630;2023-01-30T01:33:16;33.97;;;20.35;;
7523;SDS011;3803;51.666;7.630;2023-01-30T01:33:37;33.97;;;20.10;;
7523;SDS011;3803;51.666;7.630;2023-01-30T01:33:58;35.78;;;20.17;;
7523;SDS011;3803;51.666;7.630;2023-01-30T01:34:19;37.03;;;20.52;;
7523;SDS011;3803;51.666;7.630;2023-01-30T01:34:39;36.28;;;20.23;;
7523;SDS011;3803;51.666;7.630;2023-01-30T01:35:00;35.63;;;20.17;;
7523;SDS011;3803;51.666;7.630;2023-01-30T01:35:21;34.92;;;19.67;;
7523;SDS011;3803;51.666;7.630;2023-01-30T01:35:41;35.20;;;19.92;;
7523;SDS011;3803;51.666;7.630;2023-01-30T01:36:02;35.40;;;19.97;;
7523;SDS011;3803;51.666;7.630;2023-01-30T01:36:23;35.00;;;20.48;;
7523;SDS011;3803;51.666;7.630;2023-01-30T01:36:43;37.40;;;21.05;;
7523;SDS011;3803;51.666;7.630;2023-01-30T01:37:09;36.83;;;20.73;;
7523;SDS011;3803;51.666;7.630;2023-01-30T01:37:31;36.67;;;19.90;;
7523;SDS011;3803;51.666;7.630;2023-01-30T01:37:52;34.63;;;19.60;;
7523;SDS011;3803;51.666;7.630;2023-01-30T01:38:13;35.13;;;19.77;;
7523;SDS011;3803;51.666;7.630;2023-01-30T01:38:34;35.53;;;19.70;;
7523;SDS011;3803;51.666;7.630;2023-01-30T01:38:54;35.60;;;19.27;;
7523;SDS011;3803;51.666;7.630;2023-01-30T01:39:15;34.38;;;18.90;;
7523;SDS011;3803;51.666;7.630;2023-01-30T01:39:35;34.65;;;19.77;;
7523;SDS011;3803;51.666;7.630;2023-01-30T01:40:16;34.70;;;20.45;;
7523;SDS011;3803;51.666;7.630;2023-01-30T01:40:57;35.60;;;20.38;;
7523;SDS011;3803;51.666;7.630;2023-01-30T01:41:21;38.35;;;20.77;;
7523;SDS011;3803;51.666;7.630;2023-01-30T01:41:42;37.90;;;20.40;;
7523;SDS011;3803;51.666;7.630;2023-01-30T01:42:02;37.92;;;21.10;;
7523;SDS011;3803;51.666;7.630;2023-01-30T01:42:25;37.75;;;21.50;;
7523;SDS011;3803;51.666;7.630;2023-01-30T01:42:49;37.67;;;21.67;;
7523;SDS011;3803;51.666;7.630;2023-01-30T01:43:17;38.75;;;21.15;;
7523;SDS011;3803;51.666;7.630;2023-01-30T01:44:22;37.28;;;20.30;;
7523;SDS011;3803;51.666;7.630;2023-01-30T01:45:23;38.45;;;21.13;;
7523;SDS011;3803;51.666;7.630;2023-01-30T01:45:44;35.83;;;20.42;;
7523;SDS011;3803;51.666;7.630;2023-01-30T01:46:10;34.60;;;19.90;;
7523;SDS011;3803;51.666;7.630;2023-01-30T01:46:50;34.63;;;19.30;;
7523;SDS011;3803;51.666;7.630;2023-01-30T01:47:15;36.95;;;20.48;;
7523;SDS011;3803;51.666;7.630;2023-01-30T01:47:36;36.75;;;20.77;;
7523;SDS011;3803;51.666;7.630;2023-01-30T01:48:04;37.67;;;21.48;;
7523;SDS011;3803;51.666;7.630;2023-01-30T01:48:33;34.97;;;20.35;;
7523;SDS011;3803;51.666;7.630;2023-01-30T01:48:59;33.60;;;19.67;;
7523;SDS011;3803;51.666;7.630;2023-01-30T01:49:50;38.42;;;20.17;;
7523;SDS011;3803;51.666;7.630;2023-01-30T01:50:18;36.55;;;19.63;;
7523;SDS011;3803;51.666;7.630;2023-01-30T01:51:20;35.33;;;20.05;;
7523;SDS011;3803;51.666;7.630;2023-01-30T01:51:56;36.00;;;20.33;;
7523;SDS011;3803;51.666;7.630;2023-01-30T01:52:25;34.85;;;20.20;;
7523;SDS011;3803;51.666;7.630;2023-01-30T01:52:46;35.58;;;20.13;;
7523;SDS011;3803;51.666;7.630;2023-01-30T01:53:10;34.33;;;19.35;;
7523;SDS011;3803;51.666;7.630;2023-01-30T01:53:46;35.38;;;19.58;;
7523;SDS011;3803;51.666;7.630;2023-01-30T01:54:15;34.50;;;19.20;;
7523;SDS011;3803;51.666;7.630;2023-01-30T01:54:49;34.45;;;19.13;;
7523;SDS011;3803;51.666;7.630;2023-01-30T01:55:14;33.50;;;18.83;;
7523;SDS011;3803;51.666;7.630;2023-01-30T01:55:35;34.30;;;18.65;;
7523;SDS011;3803;51.666;7.630;2023-01-30T01:56:00;32.35;;;18.75;;
7523;SDS011;3803;51.666;7.630;2023-01-30T01:56:23;32.22;;;18.80;;
7523;SDS011;3803;51.666;7.630;2023-01-30T01:56:44;32.00;;;19.20;;
7523;SDS011;3803;51.666;7.630;2023-01-30T01:57:08;33.28;;;19.15;;
7523;SDS011;3803;51.666;7.630;2023-01-30T01:57:52;36.35;;;19.42;;
7523;SDS011;3803;51.666;7.630;2023-01-30T01:58:36;37.05;;;19.67;;
7523;SDS011;3803;51.666;7.630;2023-01-30T01:59:02;38.03;;;20.77;;
7523;SDS011;3803;51.666;7.630;2023-01-30T01:59:43;35.00;;;19.85;;
7523;SDS011;3803;51.666;7.630;2023-01-30T02:00:12;36.20;;;19.52;;
7523;SDS011;3803;51.666;7.630;2023-01-30T02:00:35;37.63;;;19.63;;
7523;SDS011;3803;51.666;7.630;2023-01-30T02:00:56;37.30;;;19.75;;
7523;SDS011;3803;51.666;7.630;2023-01-30T02:01:19;36.97;;;20.02;;
7523;SDS011;3803;51.666;7.630;2023-01-30T02:01:40;38.55;;;20.15;;
7523;SDS011;3803;51.666;7.630;2023-01-30T02:02:02;36.85;;;20.13;;
7523;SDS011;3803;51.666;7.630;2023-01-30T02:02:28;36.97;;;20.13;;
7523;SDS011;3803;51.666;7.630;2023-01-30T02:02:59;36.70;;;20.33;;
7523;SDS011;3803;51.666;7.630;2023-01-30T02:03:23;34.88;;;19.60;;
7523;SDS011;3803;51.666;7.630;2023-01-30T02:03:46;36.17;;;19.95;;
7523;SDS011;3803;51.666;7.630;2023-01-30T02:04:12;36.97;;;20.48;;
7523;SDS011;3803;51.666;7.630;2023-01-30T02:04:35;40.13;;;20.83;;
7523;SDS011;3803;51.666;7.630;2023-01-30T02:05:18;37.08;;;20.05;;
7523;SDS011;3803;51.666;7.630;2023-01-30T02:05:41;34.10;;;19.70;;
7523;SDS011;3803;51.666;7.630;2023-01-30T02:06:04;34.63;;;19.15;;
7523;SDS011;3803;51.666;7.630;2023-01-30T02:06:26;34.42;;;18.90;;
7523;SDS011;3803;51.666;7.630;2023-01-30T02:06:48;35.90;;;19.45;;
7523;SDS011;3803;51.666;7.630;2023-01-30T02:07:09;36.40;;;19.67;;
7523;SDS011;3803;51.666;7.630;2023-01-30T02:07:59;39.20;;;20.10;;
7523;SDS011;3803;51.666;7.630;2023-01-30T02:08:23;39.03;;;19.60;;
7523;SDS011;3803;51.666;7.630;2023-01-30T02:08:52;38.97;;;19.98;;
7523;SDS011;3803;51.666;7.630;2023-01-30T02:09:17;35.33;;;20.33;;
7523;SDS011;3803;51.666;7.630;2023-01-30T02:09:37;35.30;;;20.30;;
7523;SDS011;3803;51.666;7.630;2023-01-30T02:09:58;37.10;;;21.00;;
7523;SDS011;3803;51.666;7.630;2023-01-30T02:10:22;37.53;;;21.00;;
7523;SDS011;3803;51.666;7.630;2023-01-30T02:10:57;37.60;;;20.92;;
7523;SDS011;3803;51.666;7.630;2023-01-30T02:11:55;33.10;;;20.02;;
7523;SDS011;3803;51.666;7.630;2023-01-30T02:12:18;32.47;;;19.58;;
7523;SDS011;3803;51.666;7.630;2023-01-30T02:12:39;33.47;;;19.42;;
7523;SDS011;3803;51.666;7.630;2023-01-30T02:13:00;32.95;;;19.60;;
7523;SDS011;3803;51.666;7.630;2023-01-30T02:13:21;37.25;;;20.50;;
7523;SDS011;3803;51.666;7.630;2023-01-30T02:13:43;36.00;;;19.88;;
7523;SDS011;3803;51.666;7.630;2023-01-30T02:14:05;42.40;;;20.85;;
7523;SDS011;3803;51.666;7.630;2023-01-30T02:14:27;42.15;;;21.23;;
7523;SDS011;3803;51.666;7.630;2023-01-30T02:14:48;37.72;;;21.58;;
7523;SDS011;3803;51.666;7.630;2023-01-30T02:15:10;36.58;;;20.70;;
7523;SDS011;3803;51.666;7.630;2023-01-30T02:15:33;38.10;;;20.88;;
7523;SDS011;3803;51.666;7.630;2023-01-30T02:15:55;38.47;;;21.10;;
7523;SDS011;3803;51.666;7.630;2023-01-30T02:16:18;37.83;;;20.80;;
7523;SDS011;3803;51.666;7.630;2023-01-30T02:16:40;37.60;;;20.42;;
7523;SDS011;3803;51.666;7.630;2023-01-30T02:17:05;38.20;;;20.60;;
7523;SDS011;3803;51.666;7.630;2023-01-30T02:17:27;39.40;;;20.60;;
7523;SDS011;3803;51.666;7.630;2023-01-30T02:17:49;39.10;;;20.77;;
7523;SDS011;3803;51.666;7.630;2023-01-30T02:18:10;39.75;;;21.20;;
7523;SDS011;3803;51.666;7.630;2023-01-30T02:18:33;37.80;;;21.52;;
7523;SDS011;3803;51.666;7.630;2023-01-30T02:18:58;37.85;;;21.00;;
7523;SDS011;3803;51.666;7.630;2023-01-30T02:29:22;37.80;;;20.85;;
7523;SDS011;3803;51.666;7.630;2023-01-30T02:31:26;37.80;;;20.85;;
7523;SDS011;3803;51.666;7.630;2023-01-30T02:36:12;34.45;;;21.45;;
7523;SDS011;3803;51.666;7.630;2023-01-30T02:37:03;36.92;;;21.98;;
7523;SDS011;3803;51.666;7.630;2023-01-30T02:38:15;38.22;;;22.58;;
7523;SDS011;3803;51.666;7.630;2023-01-30T02:39:16;38.55;;;21.98;;